Skegness, United Kingdom
Current Conditions -  °F | °C
As of 5:50 AM on Sunday 21 Dec 2014 (Local Time) from EGXC Reporting Station
Broken Clouds Broken Clouds  
Wind Chill: 34°   Ceiling: 2200
Heat Index: 41°   Visibility: 6mi
Dew Point: 37°   Wind: 13mph
Humidity: 87%   Direction: 190°S
Pressure: 30.27"   Gusts: NA
Location:  53.14°N, 0.34°E
Report Text: EGXC 210550Z 19011KT 9999 BKN022 BKN035 05/03 Q1025 WHT
Loading
Personal Weather Stations






























Interactive Weather Map New forecast layout! Learn more

10-Day Weather Forecast

Advertisements
Track Severe Weather on mobile